sensor_id;sensor_type;location;lat;lon;timestamp;P1;durP1;ratioP1;P2;durP2;ratioP2
51724;SDS011;37801;53.224;6.552;2023-10-09T00:01:25;7.97;;;3.05;;
51724;SDS011;37801;53.224;6.552;2023-10-09T00:03:51;8.73;;;3.33;;
51724;SDS011;37801;53.224;6.552;2023-10-09T00:06:19;7.05;;;3.28;;
51724;SDS011;37801;53.224;6.552;2023-10-09T00:08:55;8.02;;;3.28;;
51724;SDS011;37801;53.224;6.552;2023-10-09T00:11:21;6.85;;;3.40;;
51724;SDS011;37801;53.224;6.552;2023-10-09T00:13:54;6.13;;;2.92;;
51724;SDS011;37801;53.224;6.552;2023-10-09T00:16:24;8.35;;;3.10;;
51724;SDS011;37801;53.224;6.552;2023-10-09T00:19:00;9.73;;;3.70;;
51724;SDS011;37801;53.224;6.552;2023-10-09T00:21:43;7.63;;;3.72;;
51724;SDS011;37801;53.224;6.552;2023-10-09T00:24:09;8.10;;;3.80;;
51724;SDS011;37801;53.224;6.552;2023-10-09T00:26:45;8.05;;;3.83;;
51724;SDS011;37801;53.224;6.552;2023-10-09T00:29:12;8.75;;;3.78;;
51724;SDS011;37801;53.224;6.552;2023-10-09T00:31:51;6.93;;;3.70;;
51724;SDS011;37801;53.224;6.552;2023-10-09T00:34:43;7.82;;;4.15;;
51724;SDS011;37801;53.224;6.552;2023-10-09T00:37:10;8.77;;;4.65;;
51724;SDS011;37801;53.224;6.552;2023-10-09T00:39:41;11.00;;;4.70;;
51724;SDS011;37801;53.224;6.552;2023-10-09T00:42:08;9.05;;;4.40;;
51724;SDS011;37801;53.224;6.552;2023-10-09T00:44:38;11.95;;;4.78;;
51724;SDS011;37801;53.224;6.552;2023-10-09T00:47:11;10.43;;;5.03;;
51724;SDS011;37801;53.224;6.552;2023-10-09T00:49:51;9.02;;;4.35;;
51724;SDS011;37801;53.224;6.552;2023-10-09T00:52:29;10.43;;;4.93;;
51724;SDS011;37801;53.224;6.552;2023-10-09T00:55:00;9.57;;;4.82;;
51724;SDS011;37801;53.224;6.552;2023-10-09T00:57:29;9.40;;;5.35;;
51724;SDS011;37801;53.224;6.552;2023-10-09T00:59:59;10.27;;;5.20;;
51724;SDS011;37801;53.224;6.552;2023-10-09T01:02:26;10.15;;;5.20;;
51724;SDS011;37801;53.224;6.552;2023-10-09T01:05:03;9.75;;;5.18;;
51724;SDS011;37801;53.224;6.552;2023-10-09T01:07:45;9.90;;;5.32;;
51724;SDS011;37801;53.224;6.552;2023-10-09T01:10:11;12.90;;;6.28;;
51724;SDS011;37801;53.224;6.552;2023-10-09T01:12:41;12.90;;;6.07;;
51724;SDS011;37801;53.224;6.552;2023-10-09T01:15:10;10.80;;;6.32;;
51724;SDS011;37801;53.224;6.552;2023-10-09T01:18:01;11.90;;;6.68;;
51724;SDS011;37801;53.224;6.552;2023-10-09T01:20:27;13.07;;;6.45;;
51724;SDS011;37801;53.224;6.552;2023-10-09T01:23:00;14.85;;;6.70;;
51724;SDS011;37801;53.224;6.552;2023-10-09T01:25:27;13.40;;;6.63;;
51724;SDS011;37801;53.224;6.552;2023-10-09T01:28:06;13.07;;;7.63;;
51724;SDS011;37801;53.224;6.552;2023-10-09T01:30:32;14.38;;;7.43;;
51724;SDS011;37801;53.224;6.552;2023-10-09T01:32:59;15.15;;;7.78;;
51724;SDS011;37801;53.224;6.552;2023-10-09T01:35:37;15.98;;;7.95;;
51724;SDS011;37801;53.224;6.552;2023-10-09T01:38:15;17.00;;;8.10;;
51724;SDS011;37801;53.224;6.552;2023-10-09T01:40:42;16.30;;;8.35;;
51724;SDS011;37801;53.224;6.552;2023-10-09T01:43:09;13.98;;;8.15;;
51724;SDS011;37801;53.224;6.552;2023-10-09T01:45:36;18.58;;;9.05;;
51724;SDS011;37801;53.224;6.552;2023-10-09T01:48:12;18.23;;;8.45;;
51724;SDS011;37801;53.224;6.552;2023-10-09T01:50:41;18.25;;;9.15;;
51724;SDS011;37801;53.224;6.552;2023-10-09T01:53:08;17.42;;;10.10;;
51724;SDS011;37801;53.224;6.552;2023-10-09T01:55:35;20.42;;;10.02;;
51724;SDS011;37801;53.224;6.552;2023-10-09T01:58:06;20.77;;;11.43;;
51724;SDS011;37801;53.224;6.552;2023-10-09T02:00:47;19.23;;;9.50;;
51724;SDS011;37801;53.224;6.552;2023-10-09T02:03:20;19.25;;;9.98;;
51724;SDS011;37801;53.224;6.552;2023-10-09T02:05:51;23.77;;;11.13;;
51724;SDS011;37801;53.224;6.552;2023-10-09T02:08:18;20.30;;;10.75;;
51724;SDS011;37801;53.224;6.552;2023-10-09T02:10:52;24.88;;;11.55;;
51724;SDS011;37801;53.224;6.552;2023-10-09T02:13:21;24.13;;;11.38;;
51724;SDS011;37801;53.224;6.552;2023-10-09T02:15:55;19.58;;;11.27;;
51724;SDS011;37801;53.224;6.552;2023-10-09T02:18:38;22.13;;;10.82;;
51724;SDS011;37801;53.224;6.552;2023-10-09T02:21:05;19.17;;;11.27;;
51724;SDS011;37801;53.224;6.552;2023-10-09T02:23:32;19.48;;;11.63;;
51724;SDS011;37801;53.224;6.552;2023-10-09T02:26:15;20.95;;;10.93;;
51724;SDS011;37801;53.224;6.552;2023-10-09T02:28:55;23.42;;;11.93;;
51724;SDS011;37801;53.224;6.552;2023-10-09T02:31:27;25.75;;;12.38;;
51724;SDS011;37801;53.224;6.552;2023-10-09T02:34:00;23.20;;;12.73;;
51724;SDS011;37801;53.224;6.552;2023-10-09T02:36:30;21.90;;;12.45;;
51724;SDS011;37801;53.224;6.552;2023-10-09T02:38:56;22.15;;;12.88;;
51724;SDS011;37801;53.224;6.552;2023-10-09T02:41:22;20.02;;;11.55;;
51724;SDS011;37801;53.224;6.552;2023-10-09T02:43:53;28.92;;;13.30;;
51724;SDS011;37801;53.224;6.552;2023-10-09T02:46:23;26.23;;;13.77;;
51724;SDS011;37801;53.224;6.552;2023-10-09T02:48:56;23.75;;;14.15;;
51724;SDS011;37801;53.224;6.552;2023-10-09T02:51:30;24.23;;;13.38;;
51724;SDS011;37801;53.224;6.552;2023-10-09T02:54:03;26.65;;;14.55;;
51724;SDS011;37801;53.224;6.552;2023-10-09T02:56:43;23.80;;;14.02;;
51724;SDS011;37801;53.224;6.552;2023-10-09T02:59:12;25.75;;;14.63;;
51724;SDS011;37801;53.224;6.552;2023-10-09T03:01:39;29.90;;;15.93;;
51724;SDS011;37801;53.224;6.552;2023-10-09T03:04:07;25.60;;;15.13;;
51724;SDS011;37801;53.224;6.552;2023-10-09T03:06:36;32.80;;;15.95;;
51724;SDS011;37801;53.224;6.552;2023-10-09T03:09:08;26.90;;;15.73;;
51724;SDS011;37801;53.224;6.552;2023-10-09T03:11:48;26.88;;;15.85;;
51724;SDS011;37801;53.224;6.552;2023-10-09T03:14:21;28.88;;;17.08;;
51724;SDS011;37801;53.224;6.552;2023-10-09T03:16:51;27.98;;;15.82;;
51724;SDS011;37801;53.224;6.552;2023-10-09T03:19:18;27.60;;;15.55;;
51724;SDS011;37801;53.224;6.552;2023-10-09T03:21:44;28.13;;;15.50;;
51724;SDS011;37801;53.224;6.552;2023-10-09T03:24:11;27.85;;;16.45;;
51724;SDS011;37801;53.224;6.552;2023-10-09T03:26:38;26.48;;;15.95;;
51724;SDS011;37801;53.224;6.552;2023-10-09T03:29:04;27.60;;;16.27;;
51724;SDS011;37801;53.224;6.552;2023-10-09T03:31:35;28.13;;;16.70;;
51724;SDS011;37801;53.224;6.552;2023-10-09T03:34:02;27.38;;;16.60;;
51724;SDS011;37801;53.224;6.552;2023-10-09T03:36:28;27.67;;;16.55;;
51724;SDS011;37801;53.224;6.552;2023-10-09T03:38:59;31.33;;;18.00;;
51724;SDS011;37801;53.224;6.552;2023-10-09T03:41:25;31.80;;;18.48;;
51724;SDS011;37801;53.224;6.552;2023-10-09T03:43:52;30.02;;;17.67;;
51724;SDS011;37801;53.224;6.552;2023-10-09T03:46:19;31.55;;;18.33;;
51724;SDS011;37801;53.224;6.552;2023-10-09T03:48:49;26.48;;;17.65;;
51724;SDS011;37801;53.224;6.552;2023-10-09T03:51:22;30.27;;;17.77;;
51724;SDS011;37801;53.224;6.552;2023-10-09T03:53:48;31.63;;;19.23;;
51724;SDS011;37801;53.224;6.552;2023-10-09T03:56:15;30.80;;;18.52;;
51724;SDS011;37801;53.224;6.552;2023-10-09T03:58:43;32.47;;;18.95;;
51724;SDS011;37801;53.224;6.552;2023-10-09T04:01:10;33.05;;;19.00;;
51724;SDS011;37801;53.224;6.552;2023-10-09T04:03:43;29.40;;;18.83;;
51724;SDS011;37801;53.224;6.552;2023-10-09T04:06:09;32.83;;;18.80;;
51724;SDS011;37801;53.224;6.552;2023-10-09T04:08:36;29.77;;;18.40;;
51724;SDS011;37801;53.224;6.552;2023-10-09T04:11:05;29.52;;;18.02;;
51724;SDS011;37801;53.224;6.552;2023-10-09T04:13:41;28.95;;;17.45;;
51724;SDS011;37801;53.224;6.552;2023-10-09T04:16:07;30.17;;;17.88;;
51724;SDS011;37801;53.224;6.552;2023-10-09T04:18:53;27.13;;;16.60;;
51724;SDS011;37801;53.224;6.552;2023-10-09T04:21:23;27.23;;;15.95;;
51724;SDS011;37801;53.224;6.552;2023-10-09T04:26:47;25.42;;;15.25;;
51724;SDS011;37801;53.224;6.552;2023-10-09T04:29:21;22.83;;;14.48;;
51724;SDS011;37801;53.224;6.552;2023-10-09T04:31:56;26.55;;;14.65;;
51724;SDS011;37801;53.224;6.552;2023-10-09T04:34:26;24.90;;;14.85;;
51724;SDS011;37801;53.224;6.552;2023-10-09T04:37:03;23.83;;;13.63;;
51724;SDS011;37801;53.224;6.552;2023-10-09T04:39:38;20.98;;;13.55;;
51724;SDS011;37801;53.224;6.552;2023-10-09T04:42:12;27.20;;;15.48;;
51724;SDS011;37801;53.224;6.552;2023-10-09T04:44:51;26.98;;;15.93;;
51724;SDS011;37801;53.224;6.552;2023-10-09T04:47:29;25.65;;;15.20;;
51724;SDS011;37801;53.224;6.552;2023-10-09T04:50:03;23.33;;;15.40;;
51724;SDS011;37801;53.224;6.552;2023-10-09T04:52:33;27.00;;;15.50;;
51724;SDS011;37801;53.224;6.552;2023-10-09T04:54:59;26.15;;;16.15;;
51724;SDS011;37801;53.224;6.552;2023-10-09T04:57:35;25.90;;;15.52;;
51724;SDS011;37801;53.224;6.552;2023-10-09T05:00:08;24.60;;;16.13;;
51724;SDS011;37801;53.224;6.552;2023-10-09T05:02:53;23.35;;;13.90;;
51724;SDS011;37801;53.224;6.552;2023-10-09T05:05:26;22.02;;;14.40;;
51724;SDS011;37801;53.224;6.552;2023-10-09T05:08:17;25.45;;;14.93;;
51724;SDS011;37801;53.224;6.552;2023-10-09T05:10:53;26.60;;;15.75;;
51724;SDS011;37801;53.224;6.552;2023-10-09T05:13:23;23.15;;;14.35;;
51724;SDS011;37801;53.224;6.552;2023-10-09T05:18:41;21.55;;;13.27;;
51724;SDS011;37801;53.224;6.552;2023-10-09T05:21:10;19.65;;;13.48;;
51724;SDS011;37801;53.224;6.552;2023-10-09T05:23:55;28.05;;;14.07;;
51724;SDS011;37801;53.224;6.552;2023-10-09T05:29:12;21.02;;;12.43;;
51724;SDS011;37801;53.224;6.552;2023-10-09T05:31:56;19.20;;;12.82;;
51724;SDS011;37801;53.224;6.552;2023-10-09T05:34:52;21.85;;;12.50;;
51724;SDS011;37801;53.224;6.552;2023-10-09T05:37:28;22.02;;;12.05;;
51724;SDS011;37801;53.224;6.552;2023-10-09T05:39:58;20.75;;;11.07;;
51724;SDS011;37801;53.224;6.552;2023-10-09T05:45:14;20.35;;;10.88;;
51724;SDS011;37801;53.224;6.552;2023-10-09T05:47:50;20.40;;;11.05;;
51724;SDS011;37801;53.224;6.552;2023-10-09T05:50:24;16.27;;;9.57;;
51724;SDS011;37801;53.224;6.552;2023-10-09T05:52:50;15.45;;;9.52;;
51724;SDS011;37801;53.224;6.552;2023-10-09T05:55:17;21.42;;;10.15;;
51724;SDS011;37801;53.224;6.552;2023-10-09T05:57:48;17.38;;;9.38;;
51724;SDS011;37801;53.224;6.552;2023-10-09T06:00:27;15.48;;;8.73;;
51724;SDS011;37801;53.224;6.552;2023-10-09T06:03:11;16.60;;;8.50;;
51724;SDS011;37801;53.224;6.552;2023-10-09T06:05:53;16.83;;;8.95;;
51724;SDS011;37801;53.224;6.552;2023-10-09T06:08:23;20.52;;;10.00;;
51724;SDS011;37801;53.224;6.552;2023-10-09T06:10:56;16.95;;;8.75;;
51724;SDS011;37801;53.224;6.552;2023-10-09T06:13:32;22.25;;;9.00;;
51724;SDS011;37801;53.224;6.552;2023-10-09T06:16:06;15.63;;;9.07;;
51724;SDS011;37801;53.224;6.552;2023-10-09T06:18:58;15.43;;;7.78;;
51724;SDS011;37801;53.224;6.552;2023-10-09T06:21:36;15.25;;;7.60;;
51724;SDS011;37801;53.224;6.552;2023-10-09T06:26:45;19.13;;;8.75;;
51724;SDS011;37801;53.224;6.552;2023-10-09T06:29:23;15.35;;;8.15;;
51724;SDS011;37801;53.224;6.552;2023-10-09T06:32:05;18.77;;;9.18;;
51724;SDS011;37801;53.224;6.552;2023-10-09T06:37:11;17.83;;;9.02;;
51724;SDS011;37801;53.224;6.552;2023-10-09T06:39:59;16.63;;;7.90;;
51724;SDS011;37801;53.224;6.552;2023-10-09T06:42:54;11.25;;;6.82;;
51724;SDS011;37801;53.224;6.552;2023-10-09T06:45:20;14.32;;;7.43;;
51724;SDS011;37801;53.224;6.552;2023-10-09T06:47:53;19.77;;;8.97;;
51724;SDS011;37801;53.224;6.552;2023-10-09T06:50:35;19.65;;;8.13;;
51724;SDS011;37801;53.224;6.552;2023-10-09T06:53:33;17.63;;;8.10;;
51724;SDS011;37801;53.224;6.552;2023-10-09T06:56:21;13.70;;;7.97;;
51724;SDS011;37801;53.224;6.552;2023-10-09T06:58:50;12.77;;;6.95;;
51724;SDS011;37801;53.224;6.552;2023-10-09T07:01:20;16.13;;;8.10;;
51724;SDS011;37801;53.224;6.552;2023-10-09T07:03:52;14.07;;;7.43;;
51724;SDS011;37801;53.224;6.552;2023-10-09T07:06:19;14.10;;;8.98;;
51724;SDS011;37801;53.224;6.552;2023-10-09T07:09:00;17.15;;;8.98;;
51724;SDS011;37801;53.224;6.552;2023-10-09T07:11:31;12.30;;;7.70;;
51724;SDS011;37801;53.224;6.552;2023-10-09T07:14:07;16.98;;;7.72;;
51724;SDS011;37801;53.224;6.552;2023-10-09T07:16:37;16.85;;;8.18;;
51724;SDS011;37801;53.224;6.552;2023-10-09T07:19:06;16.80;;;8.18;;
51724;SDS011;37801;53.224;6.552;2023-10-09T07:21:51;18.05;;;8.48;;
51724;SDS011;37801;53.224;6.552;2023-10-09T07:24:19;21.63;;;7.72;;
51724;SDS011;37801;53.224;6.552;2023-10-09T07:29:35;14.55;;;6.97;;
51724;SDS011;37801;53.224;6.552;2023-10-09T07:32:16;18.50;;;8.45;;
51724;SDS011;37801;53.224;6.552;2023-10-09T07:34:52;14.93;;;7.60;;
51724;SDS011;37801;53.224;6.552;2023-10-09T07:37:27;13.88;;;7.90;;
51724;SDS011;37801;53.224;6.552;2023-10-09T07:40:01;19.23;;;8.40;;
51724;SDS011;37801;53.224;6.552;2023-10-09T07:42:32;16.83;;;8.20;;
51724;SDS011;37801;53.224;6.552;2023-10-09T07:45:00;15.05;;;8.35;;
51724;SDS011;37801;53.224;6.552;2023-10-09T07:47:37;16.60;;;8.15;;
51724;SDS011;37801;53.224;6.552;2023-10-09T07:50:22;18.17;;;7.95;;
51724;SDS011;37801;53.224;6.552;2023-10-09T07:52:48;17.70;;;8.23;;
51724;SDS011;37801;53.224;6.552;2023-10-09T07:55:15;13.15;;;7.50;;
51724;SDS011;37801;53.224;6.552;2023-10-09T07:57:54;14.90;;;8.13;;
51724;SDS011;37801;53.224;6.552;2023-10-09T08:00:20;17.48;;;7.75;;
51724;SDS011;37801;53.224;6.552;2023-10-09T08:03:02;16.50;;;7.80;;
51724;SDS011;37801;53.224;6.552;2023-10-09T08:05:28;18.08;;;8.55;;
51724;SDS011;37801;53.224;6.552;2023-10-09T08:08:09;16.85;;;8.52;;
51724;SDS011;37801;53.224;6.552;2023-10-09T08:11:01;17.08;;;7.72;;
51724;SDS011;37801;53.224;6.552;2023-10-09T08:14:06;15.18;;;7.78;;
51724;SDS011;37801;53.224;6.552;2023-10-09T08:16:52;16.23;;;7.35;;
51724;SDS011;37801;53.224;6.552;2023-10-09T08:22:17;16.50;;;8.38;;
51724;SDS011;37801;53.224;6.552;2023-10-09T08:24:49;17.70;;;7.85;;
51724;SDS011;37801;53.224;6.552;2023-10-09T08:27:28;17.97;;;7.77;;
51724;SDS011;37801;53.224;6.552;2023-10-09T08:29:58;17.23;;;8.27;;
51724;SDS011;37801;53.224;6.552;2023-10-09T08:32:43;16.75;;;8.05;;
51724;SDS011;37801;53.224;6.552;2023-10-09T08:35:26;18.50;;;8.37;;
51724;SDS011;37801;53.224;6.552;2023-10-09T08:37:56;18.02;;;7.20;;
51724;SDS011;37801;53.224;6.552;2023-10-09T08:40:35;16.60;;;7.93;;
51724;SDS011;37801;53.224;6.552;2023-10-09T08:43:08;20.23;;;10.18;;
51724;SDS011;37801;53.224;6.552;2023-10-09T08:45:38;15.05;;;8.00;;
51724;SDS011;37801;53.224;6.552;2023-10-09T08:48:05;16.73;;;8.13;;
51724;SDS011;37801;53.224;6.552;2023-10-09T08:50:32;15.63;;;7.50;;
51724;SDS011;37801;53.224;6.552;2023-10-09T08:53:00;19.60;;;8.18;;
51724;SDS011;37801;53.224;6.552;2023-10-09T08:55:28;14.50;;;7.40;;
51724;SDS011;37801;53.224;6.552;2023-10-09T08:57:54;17.25;;;7.55;;
51724;SDS011;37801;53.224;6.552;2023-10-09T09:00:23;17.55;;;8.15;;
51724;SDS011;37801;53.224;6.552;2023-10-09T09:02:50;17.55;;;7.53;;
51724;SDS011;37801;53.224;6.552;2023-10-09T09:05:18;15.80;;;7.55;;
51724;SDS011;37801;53.224;6.552;2023-10-09T09:07:46;20.27;;;8.27;;
51724;SDS011;37801;53.224;6.552;2023-10-09T09:10:13;13.90;;;7.57;;
51724;SDS011;37801;53.224;6.552;2023-10-09T09:12:46;16.25;;;7.55;;
51724;SDS011;37801;53.224;6.552;2023-10-09T09:15:16;17.65;;;8.00;;
51724;SDS011;37801;53.224;6.552;2023-10-09T09:17:47;13.73;;;7.45;;
51724;SDS011;37801;53.224;6.552;2023-10-09T09:20:20;16.10;;;7.72;;
51724;SDS011;37801;53.224;6.552;2023-10-09T09:22:51;15.48;;;7.15;;
51724;SDS011;37801;53.224;6.552;2023-10-09T09:25:19;18.63;;;7.57;;
51724;SDS011;37801;53.224;6.552;2023-10-09T09:27:49;14.50;;;7.93;;
51724;SDS011;37801;53.224;6.552;2023-10-09T09:30:23;15.45;;;7.40;;
51724;SDS011;37801;53.224;6.552;2023-10-09T09:32:50;13.52;;;7.30;;
51724;SDS011;37801;53.224;6.552;2023-10-09T09:35:37;13.52;;;6.80;;
51724;SDS011;37801;53.224;6.552;2023-10-09T09:38:04;12.90;;;7.03;;
51724;SDS011;37801;53.224;6.552;2023-10-09T09:40:32;13.60;;;7.25;;
51724;SDS011;37801;53.224;6.552;2023-10-09T09:43:06;17.23;;;7.53;;
51724;SDS011;37801;53.224;6.552;2023-10-09T09:45:38;19.38;;;7.57;;
51724;SDS011;37801;53.224;6.552;2023-10-09T09:48:11;15.73;;;6.88;;
51724;SDS011;37801;53.224;6.552;2023-10-09T09:50:40;15.70;;;7.25;;
51724;SDS011;37801;53.224;6.552;2023-10-09T09:53:15;13.63;;;6.78;;
51724;SDS011;37801;53.224;6.552;2023-10-09T09:55:46;12.02;;;6.32;;
51724;SDS011;37801;53.224;6.552;2023-10-09T09:58:17;15.32;;;6.72;;
51724;SDS011;37801;53.224;6.552;2023-10-09T10:00:49;15.50;;;6.40;;
51724;SDS011;37801;53.224;6.552;2023-10-09T10:03:20;18.80;;;6.97;;
51724;SDS011;37801;53.224;6.552;2023-10-09T10:05:48;15.70;;;6.40;;
51724;SDS011;37801;53.224;6.552;2023-10-09T10:08:16;14.43;;;5.80;;
51724;SDS011;37801;53.224;6.552;2023-10-09T10:10:44;16.95;;;6.55;;
51724;SDS011;37801;53.224;6.552;2023-10-09T10:16:12;13.00;;;6.00;;
51724;SDS011;37801;53.224;6.552;2023-10-09T10:18:57;15.13;;;5.82;;
51724;SDS011;37801;53.224;6.552;2023-10-09T10:21:36;12.63;;;5.72;;
51724;SDS011;37801;53.224;6.552;2023-10-09T10:29:43;15.13;;;6.90;;
51724;SDS011;37801;53.224;6.552;2023-10-09T10:32:11;16.42;;;6.13;;
51724;SDS011;37801;53.224;6.552;2023-10-09T10:37:19;17.02;;;6.65;;
51724;SDS011;37801;53.224;6.552;2023-10-09T10:39:50;14.18;;;6.22;;
51724;SDS011;37801;53.224;6.552;2023-10-09T10:42:24;13.95;;;5.63;;
51724;SDS011;37801;53.224;6.552;2023-10-09T10:45:03;18.65;;;6.15;;
51724;SDS011;37801;53.224;6.552;2023-10-09T10:47:55;12.60;;;6.03;;
51724;SDS011;37801;53.224;6.552;2023-10-09T10:50:23;13.75;;;5.78;;
51724;SDS011;37801;53.224;6.552;2023-10-09T10:53:08;15.95;;;6.60;;
51724;SDS011;37801;53.224;6.552;2023-10-09T10:55:57;16.80;;;6.13;;
51724;SDS011;37801;53.224;6.552;2023-10-09T10:58:32;15.55;;;5.38;;
51724;SDS011;37801;53.224;6.552;2023-10-09T11:01:12;16.77;;;5.97;;
51724;SDS011;37801;53.224;6.552;2023-10-09T11:03:39;14.23;;;5.47;;
51724;SDS011;37801;53.224;6.552;2023-10-09T11:06:27;13.63;;;5.93;;
51724;SDS011;37801;53.224;6.552;2023-10-09T11:09:03;13.68;;;6.05;;
51724;SDS011;37801;53.224;6.552;2023-10-09T11:11:50;16.10;;;5.82;;
51724;SDS011;37801;53.224;6.552;2023-10-09T11:14:20;14.95;;;5.85;;
51724;SDS011;37801;53.224;6.552;2023-10-09T11:16:49;20.13;;;6.15;;
51724;SDS011;37801;53.224;6.552;2023-10-09T11:19:20;18.30;;;6.00;;
51724;SDS011;37801;53.224;6.552;2023-10-09T11:21:52;18.83;;;5.28;;
51724;SDS011;37801;53.224;6.552;2023-10-09T11:24:46;18.17;;;5.63;;
51724;SDS011;37801;53.224;6.552;2023-10-09T11:27:23;15.27;;;5.65;;
51724;SDS011;37801;53.224;6.552;2023-10-09T11:29:54;12.63;;;4.82;;
51724;SDS011;37801;53.224;6.552;2023-10-09T11:32:30;16.17;;;5.25;;
51724;SDS011;37801;53.224;6.552;2023-10-09T11:35:13;17.33;;;5.25;;
51724;SDS011;37801;53.224;6.552;2023-10-09T11:37:54;15.20;;;4.65;;
51724;SDS011;37801;53.224;6.552;2023-10-09T11:40:27;13.27;;;4.45;;
51724;SDS011;37801;53.224;6.552;2023-10-09T11:42:59;11.63;;;5.38;;
51724;SDS011;37801;53.224;6.552;2023-10-09T11:45:26;12.27;;;5.47;;
51724;SDS011;37801;53.224;6.552;2023-10-09T11:48:16;11.98;;;4.80;;
51724;SDS011;37801;53.224;6.552;2023-10-09T11:51:12;12.10;;;4.50;;
51724;SDS011;37801;53.224;6.552;2023-10-09T11:53:45;12.60;;;4.40;;
51724;SDS011;37801;53.224;6.552;2023-10-09T11:56:14;13.77;;;4.53;;
51724;SDS011;37801;53.224;6.552;2023-10-09T11:58:48;9.77;;;3.78;;
51724;SDS011;37801;53.224;6.552;2023-10-09T12:01:17;13.00;;;4.10;;
51724;SDS011;37801;53.224;6.552;2023-10-09T12:03:45;13.25;;;4.43;;
51724;SDS011;37801;53.224;6.552;2023-10-09T12:06:15;10.48;;;4.10;;
51724;SDS011;37801;53.224;6.552;2023-10-09T12:08:44;10.27;;;4.32;;
51724;SDS011;37801;53.224;6.552;2023-10-09T12:11:13;15.52;;;4.00;;
51724;SDS011;37801;53.224;6.552;2023-10-09T12:13:47;11.10;;;4.30;;
51724;SDS011;37801;53.224;6.552;2023-10-09T12:16:13;11.05;;;4.07;;
51724;SDS011;37801;53.224;6.552;2023-10-09T12:18:40;10.77;;;4.15;;
51724;SDS011;37801;53.224;6.552;2023-10-09T12:21:07;10.32;;;4.43;;
51724;SDS011;37801;53.224;6.552;2023-10-09T12:23:41;11.85;;;4.00;;
51724;SDS011;37801;53.224;6.552;2023-10-09T12:26:09;10.73;;;4.47;;
51724;SDS011;37801;53.224;6.552;2023-10-09T12:28:42;9.80;;;3.95;;
51724;SDS011;37801;53.224;6.552;2023-10-09T12:31:17;21.30;;;4.90;;
51724;SDS011;37801;53.224;6.552;2023-10-09T12:33:46;14.32;;;4.63;;
51724;SDS011;37801;53.224;6.552;2023-10-09T12:36:13;14.05;;;4.47;;
51724;SDS011;37801;53.224;6.552;2023-10-09T12:38:46;8.93;;;4.00;;
51724;SDS011;37801;53.224;6.552;2023-10-09T12:41:17;9.35;;;4.07;;
51724;SDS011;37801;53.224;6.552;2023-10-09T12:43:50;7.40;;;3.67;;
51724;SDS011;37801;53.224;6.552;2023-10-09T12:46:17;11.90;;;4.30;;
51724;SDS011;37801;53.224;6.552;2023-10-09T12:48:48;10.18;;;4.75;;
51724;SDS011;37801;53.224;6.552;2023-10-09T12:51:14;8.20;;;4.28;;
51724;SDS011;37801;53.224;6.552;2023-10-09T12:53:45;16.00;;;4.95;;
51724;SDS011;37801;53.224;6.552;2023-10-09T12:56:11;10.23;;;3.85;;
51724;SDS011;37801;53.224;6.552;2023-10-09T12:58:38;9.02;;;3.90;;
51724;SDS011;37801;53.224;6.552;2023-10-09T13:01:04;9.63;;;4.40;;
51724;SDS011;37801;53.224;6.552;2023-10-09T13:03:40;12.97;;;4.80;;
51724;SDS011;37801;53.224;6.552;2023-10-09T13:06:06;12.95;;;4.22;;
51724;SDS011;37801;53.224;6.552;2023-10-09T13:08:38;7.83;;;3.90;;
51724;SDS011;37801;53.224;6.552;2023-10-09T13:11:10;14.40;;;4.53;;
51724;SDS011;37801;53.224;6.552;2023-10-09T13:13:37;10.45;;;4.20;;
51724;SDS011;37801;53.224;6.552;2023-10-09T13:16:13;11.77;;;3.92;;
51724;SDS011;37801;53.224;6.552;2023-10-09T13:18:47;11.23;;;4.10;;
51724;SDS011;37801;53.224;6.552;2023-10-09T13:21:17;12.23;;;4.15;;
51724;SDS011;37801;53.224;6.552;2023-10-09T13:23:43;9.13;;;3.92;;
51724;SDS011;37801;53.224;6.552;2023-10-09T13:26:13;9.80;;;3.63;;
51724;SDS011;37801;53.224;6.552;2023-10-09T13:28:46;10.20;;;3.72;;
51724;SDS011;37801;53.224;6.552;2023-10-09T13:31:13;8.25;;;3.80;;
51724;SDS011;37801;53.224;6.552;2023-10-09T13:33:40;10.38;;;3.95;;
51724;SDS011;37801;53.224;6.552;2023-10-09T13:36:08;13.43;;;4.30;;
51724;SDS011;37801;53.224;6.552;2023-10-09T13:38:43;9.82;;;3.90;;
51724;SDS011;37801;53.224;6.552;2023-10-09T13:41:09;8.50;;;3.42;;
51724;SDS011;37801;53.224;6.552;2023-10-09T13:43:39;10.15;;;3.95;;
51724;SDS011;37801;53.224;6.552;2023-10-09T13:46:12;8.27;;;4.10;;
51724;SDS011;37801;53.224;6.552;2023-10-09T13:48:41;10.10;;;4.13;;
51724;SDS011;37801;53.224;6.552;2023-10-09T13:51:09;13.23;;;4.03;;
51724;SDS011;37801;53.224;6.552;2023-10-09T13:53:39;8.07;;;3.65;;
51724;SDS011;37801;53.224;6.552;2023-10-09T13:56:13;13.13;;;4.40;;
51724;SDS011;37801;53.224;6.552;2023-10-09T13:58:40;11.18;;;4.03;;
51724;SDS011;37801;53.224;6.552;2023-10-09T14:01:09;11.85;;;3.75;;
51724;SDS011;37801;53.224;6.552;2023-10-09T14:03:36;8.80;;;3.50;;
51724;SDS011;37801;53.224;6.552;2023-10-09T14:06:04;11.52;;;3.90;;
51724;SDS011;37801;53.224;6.552;2023-10-09T14:08:37;9.65;;;3.70;;
51724;SDS011;37801;53.224;6.552;2023-10-09T14:11:07;8.25;;;3.40;;
51724;SDS011;37801;53.224;6.552;2023-10-09T14:13:41;12.18;;;4.18;;
51724;SDS011;37801;53.224;6.552;2023-10-09T14:16:08;9.98;;;3.25;;
51724;SDS011;37801;53.224;6.552;2023-10-09T14:18:49;8.57;;;2.97;;
51724;SDS011;37801;53.224;6.552;2023-10-09T14:21:22;9.50;;;3.30;;
51724;SDS011;37801;53.224;6.552;2023-10-09T14:23:50;8.73;;;3.40;;
51724;SDS011;37801;53.224;6.552;2023-10-09T14:26:16;7.15;;;2.97;;
51724;SDS011;37801;53.224;6.552;2023-10-09T14:28:44;10.80;;;3.10;;
51724;SDS011;37801;53.224;6.552;2023-10-09T14:31:10;11.00;;;3.35;;
51724;SDS011;37801;53.224;6.552;2023-10-09T14:33:37;9.35;;;3.30;;
51724;SDS011;37801;53.224;6.552;2023-10-09T14:36:05;8.70;;;2.90;;
51724;SDS011;37801;53.224;6.552;2023-10-09T14:38:33;11.68;;;3.40;;
51724;SDS011;37801;53.224;6.552;2023-10-09T14:41:03;8.70;;;2.90;;
51724;SDS011;37801;53.224;6.552;2023-10-09T14:43:32;6.28;;;2.67;;
51724;SDS011;37801;53.224;6.552;2023-10-09T14:45:59;8.90;;;3.50;;
51724;SDS011;37801;53.224;6.552;2023-10-09T14:48:25;5.07;;;2.50;;
51724;SDS011;37801;53.224;6.552;2023-10-09T14:50:54;8.13;;;2.58;;
51724;SDS011;37801;53.224;6.552;2023-10-09T14:53:29;8.93;;;2.42;;
51724;SDS011;37801;53.224;6.552;2023-10-09T14:55:56;7.80;;;2.28;;
51724;SDS011;37801;53.224;6.552;2023-10-09T14:58:22;9.07;;;2.50;;
51724;SDS011;37801;53.224;6.552;2023-10-09T15:00:53;6.82;;;2.80;;
51724;SDS011;37801;53.224;6.552;2023-10-09T15:03:19;8.95;;;2.60;;
51724;SDS011;37801;53.224;6.552;2023-10-09T15:05:47;8.13;;;2.88;;
51724;SDS011;37801;53.224;6.552;2023-10-09T15:08:13;6.32;;;2.13;;
51724;SDS011;37801;53.224;6.552;2023-10-09T15:10:49;6.57;;;2.17;;
51724;SDS011;37801;53.224;6.552;2023-10-09T15:13:16;9.10;;;2.28;;
51724;SDS011;37801;53.224;6.552;2023-10-09T15:15:43;6.95;;;2.17;;
51724;SDS011;37801;53.224;6.552;2023-10-09T15:18:10;8.57;;;2.20;;
51724;SDS011;37801;53.224;6.552;2023-10-09T15:20:39;9.07;;;2.50;;
51724;SDS011;37801;53.224;6.552;2023-10-09T15:23:09;12.90;;;3.33;;
51724;SDS011;37801;53.224;6.552;2023-10-09T15:25:35;10.25;;;2.85;;
51724;SDS011;37801;53.224;6.552;2023-10-09T15:28:07;14.48;;;2.80;;
51724;SDS011;37801;53.224;6.552;2023-10-09T15:30:35;8.82;;;2.88;;
51724;SDS011;37801;53.224;6.552;2023-10-09T15:33:04;8.23;;;2.60;;
51724;SDS011;37801;53.224;6.552;2023-10-09T15:35:30;8.38;;;2.22;;
51724;SDS011;37801;53.224;6.552;2023-10-09T15:38:03;8.52;;;2.42;;